Terminal Aerodrome Forecast
Issued by NWS Jacksonville, FL

Home | Current Version | Previous Version | Text Only | Print | Product List | Glossary On
Versions: 1 2 3 4 5 6 7 8 9 10 11 12
000
FTUS42 KJAX 280552
TAFSSI
TAF
KSSI 280552Z 2806/2906 05008KT P6SM SCT025
     FM281300 04011KT P6SM VCSH SCT025 BKN060
     FM281700 03014G20KT P6SM VCSH BKN030 BKN060
     FM290000 02009KT P6SM VCSH SCT025 SCT060=

USA.gov is the U.S. government's official web portal to all federal, state and local government web resources and services.